createdAt,value
2022-12-23T00:01:06.928Z,17.30
2022-12-23T00:03:08.914Z,17.73
2022-12-23T00:05:11.099Z,18.23
2022-12-23T00:07:13.037Z,18.13
2022-12-23T00:09:16.313Z,19.77
2022-12-23T00:11:19.759Z,18.50
2022-12-23T00:13:21.624Z,20.02
2022-12-23T00:15:23.648Z,19.88
2022-12-23T00:17:25.342Z,17.85
2022-12-23T00:21:28.609Z,16.17
2022-12-23T00:23:32.518Z,20.13
2022-12-23T00:25:40.895Z,20.02
2022-12-23T00:27:42.834Z,18.08
2022-12-23T00:29:44.588Z,16.67
2022-12-23T00:31:46.348Z,15.50
2022-12-23T00:33:50.269Z,17.90
2022-12-23T00:35:52.390Z,17.00
2022-12-23T00:37:54.226Z,17.15
2022-12-23T00:39:59.872Z,15.32
2022-12-23T00:42:10.717Z,16.17
2022-12-23T00:44:12.413Z,17.95
2022-12-23T00:46:14.030Z,15.77
2022-12-23T00:48:16.040Z,15.65
2022-12-23T00:50:17.933Z,17.02
2022-12-23T00:52:19.838Z,15.88
2022-12-23T00:54:21.822Z,15.60
2022-12-23T00:56:23.823Z,16.60
2022-12-23T00:58:27.011Z,16.48
2022-12-23T01:00:29.325Z,16.92
2022-12-23T01:02:31.322Z,17.70
2022-12-23T01:04:33.171Z,18.92
2022-12-23T01:06:35.198Z,17.85
2022-12-23T01:08:36.963Z,18.50
2022-12-23T01:10:40.034Z,17.08
2022-12-23T01:12:41.788Z,18.02
2022-12-23T01:14:45.064Z,15.98
2022-12-23T01:16:47.178Z,16.88
2022-12-23T01:18:50.848Z,18.00
2022-12-23T01:20:52.570Z,19.58
2022-12-23T01:22:54.508Z,18.10
2022-12-23T01:24:56.244Z,17.58
2022-12-23T01:26:58.385Z,17.75
2022-12-23T01:29:00.246Z,17.00
2022-12-23T01:31:05.557Z,16.75
2022-12-23T01:33:07.259Z,19.35
2022-12-23T01:35:08.870Z,18.13
2022-12-23T01:39:11.806Z,19.02
2022-12-23T01:43:19.014Z,19.75
2022-12-23T01:45:24.910Z,17.65
2022-12-23T01:47:36.415Z,18.98
2022-12-23T01:49:38.219Z,16.95
2022-12-23T01:51:40.027Z,19.30
2022-12-23T01:53:45.413Z,20.98
2022-12-23T01:55:51.956Z,19.25
2022-12-23T01:57:56.529Z,17.77
2022-12-23T01:59:58.164Z,18.95
2022-12-23T02:04:07.211Z,18.73
2022-12-23T02:06:11.343Z,17.73
2022-12-23T02:08:14.654Z,20.05
2022-12-23T02:10:16.620Z,21.40
2022-12-23T02:12:41.751Z,19.70
2022-12-23T02:15:01.562Z,18.58
2022-12-23T02:17:14.637Z,18.77
2022-12-23T02:19:32.349Z,18.80
2022-12-23T02:21:55.245Z,17.63
2022-12-23T02:24:50.592Z,19.67
2022-12-23T02:27:05.580Z,18.75
2022-12-23T02:29:43.325Z,18.73
2022-12-23T02:31:54.773Z,20.83
2022-12-23T02:34:02.222Z,17.98
2022-12-23T02:36:13.740Z,19.85
2022-12-23T02:38:25.280Z,16.58
2022-12-23T02:40:35.919Z,15.48
2022-12-23T02:42:43.835Z,17.27
2022-12-23T02:46:56.876Z,18.60
2022-12-23T02:49:08.039Z,17.95
2022-12-23T02:51:12.651Z,19.27
2022-12-23T02:53:22.128Z,21.27
2022-12-23T02:55:27.952Z,20.00
2022-12-23T02:57:39.326Z,18.38
2022-12-23T02:59:45.771Z,19.98
2022-12-23T03:01:49.561Z,20.35
2022-12-23T03:03:53.089Z,16.95
2022-12-23T03:05:55.535Z,20.33
2022-12-23T03:08:02.783Z,19.85
2022-12-23T03:10:13.811Z,19.90
2022-12-23T03:12:22.599Z,19.60
2022-12-23T03:14:41.897Z,20.23
2022-12-23T03:16:52.924Z,19.92
2022-12-23T03:19:07.775Z,18.23
2022-12-23T03:21:12.720Z,20.35
2022-12-23T03:23:21.695Z,21.65
2022-12-23T03:25:27.265Z,17.88
2022-12-23T03:27:34.448Z,20.00
2022-12-23T03:29:42.706Z,19.27
2022-12-23T03:31:47.601Z,21.30
2022-12-23T03:33:58.337Z,22.83
2022-12-23T03:36:05.965Z,21.02
2022-12-23T03:38:08.882Z,18.65
2022-12-23T03:40:16.356Z,20.13
2022-12-23T03:42:22.893Z,22.23
2022-12-23T03:44:28.522Z,21.08
2022-12-23T03:46:34.440Z,20.70
2022-12-23T03:48:43.627Z,19.17
2022-12-23T03:50:48.502Z,18.42
2022-12-23T03:52:56.120Z,19.20
2022-12-23T03:55:01.885Z,18.80
2022-12-23T03:57:07.579Z,21.45
2022-12-23T03:59:14.855Z,21.48
2022-12-23T04:01:21.873Z,22.13
2022-12-23T04:03:31.441Z,22.15
2022-12-23T04:05:38.185Z,19.42
2022-12-23T04:07:46.006Z,19.38
2022-12-23T04:09:51.072Z,21.27
2022-12-23T04:11:52.991Z,21.77
2022-12-23T04:13:54.726Z,20.80
2022-12-23T04:15:58.104Z,21.52
2022-12-23T04:18:00.051Z,21.25
2022-12-23T04:20:01.972Z,18.48
2022-12-23T04:22:03.923Z,20.85
2022-12-23T04:24:06.098Z,20.02
2022-12-23T04:26:09.292Z,20.00
2022-12-23T04:28:11.006Z,19.67
2022-12-23T04:30:14.055Z,20.63
2022-12-23T04:32:15.793Z,24.73
2022-12-23T04:34:17.435Z,18.92
2022-12-23T04:38:29.502Z,20.33
2022-12-23T04:40:31.332Z,17.67
2022-12-23T04:42:34.692Z,20.80
2022-12-23T04:44:36.616Z,20.55
2022-12-23T04:46:38.697Z,19.63
2022-12-23T04:48:40.400Z,21.58
2022-12-23T04:50:42.147Z,20.27
2022-12-23T04:52:44.120Z,19.85
2022-12-23T04:54:46.493Z,20.38
2022-12-23T04:56:48.233Z,20.80
2022-12-23T05:01:01.232Z,19.27
2022-12-23T05:03:03.069Z,18.80
2022-12-23T05:05:05.566Z,21.33
2022-12-23T05:07:07.262Z,20.35
2022-12-23T05:09:09.327Z,19.75
2022-12-23T05:11:11.123Z,19.33
2022-12-23T05:13:12.843Z,21.25
2022-12-23T05:15:16.047Z,18.77
2022-12-23T05:17:18.206Z,22.45
2022-12-23T05:19:19.737Z,17.25
2022-12-23T05:23:22.627Z,19.33
2022-12-23T05:27:25.529Z,21.45
2022-12-23T05:31:29.967Z,18.95
2022-12-23T05:33:32.345Z,29.25
2022-12-23T05:35:34.803Z,20.02
2022-12-23T05:37:36.389Z,19.85
2022-12-23T05:41:42.265Z,20.05
2022-12-23T05:43:43.830Z,22.08
2022-12-23T05:47:48.653Z,25.80
2022-12-23T05:49:50.172Z,26.95
2022-12-23T05:51:51.713Z,27.60
2022-12-23T05:55:54.800Z,19.88
2022-12-23T05:57:56.617Z,18.25
2022-12-23T05:59:58.465Z,19.70
2022-12-23T06:02:00.498Z,17.60
2022-12-23T06:04:04.216Z,20.15
2022-12-23T06:06:06.624Z,29.20
2022-12-23T06:08:08.169Z,20.92
2022-12-23T06:12:11.967Z,25.83
2022-12-23T06:16:15.042Z,20.13
2022-12-23T06:18:16.699Z,43.60
2022-12-23T06:20:20.883Z,26.38
2022-12-23T06:22:22.936Z,18.08
2022-12-23T06:24:24.671Z,19.98
2022-12-23T06:26:26.472Z,19.30
2022-12-23T06:28:28.576Z,17.17
2022-12-23T06:30:30.132Z,19.45
2022-12-23T06:34:40.072Z,19.73
2022-12-23T06:38:44.369Z,15.23
2022-12-23T06:42:47.696Z,18.48
2022-12-23T06:46:50.570Z,16.67
2022-12-23T06:48:55.055Z,16.42
2022-12-23T06:50:58.777Z,15.07
2022-12-23T06:53:04.731Z,14.38
2022-12-23T06:55:06.907Z,16.10
2022-12-23T06:57:08.508Z,17.42
2022-12-23T07:01:13.357Z,16.15
2022-12-23T07:03:15.183Z,17.15
2022-12-23T07:05:16.870Z,18.20
2022-12-23T07:09:21.160Z,17.67
2022-12-23T07:11:22.914Z,17.02
2022-12-23T07:13:24.603Z,17.83
2022-12-23T07:15:26.210Z,14.23
2022-12-23T07:19:29.471Z,17.13
2022-12-23T07:21:31.015Z,16.73
2022-12-23T07:23:32.562Z,17.20
2022-12-23T07:25:35.659Z,18.88
2022-12-23T07:27:37.209Z,20.65
2022-12-23T07:29:38.726Z,16.77
2022-12-23T07:33:45.991Z,16.92
2022-12-23T07:35:47.588Z,20.15
2022-12-23T07:39:52.558Z,19.10
2022-12-23T07:44:16.881Z,20.48
2022-12-23T07:48:20.158Z,19.10
2022-12-23T07:50:26.794Z,21.13
2022-12-23T07:52:28.561Z,19.27
2022-12-23T07:54:30.214Z,19.00
2022-12-23T07:56:31.778Z,18.92
2022-12-23T08:00:43.525Z,20.50
2022-12-23T08:04:46.843Z,20.98
2022-12-23T08:06:48.465Z,19.45
2022-12-23T08:10:51.422Z,17.77
2022-12-23T08:12:53.010Z,19.90
2022-12-23T08:16:57.567Z,15.65
2022-12-23T08:18:59.119Z,21.02
2022-12-23T08:21:02.689Z,17.65
2022-12-23T08:23:04.628Z,17.50
2022-12-23T08:25:07.023Z,21.98
2022-12-23T08:27:08.758Z,17.83
2022-12-23T08:29:10.566Z,21.98
2022-12-23T08:31:15.934Z,21.42
2022-12-23T08:33:17.630Z,20.08
2022-12-23T08:37:23.392Z,19.35
2022-12-23T08:39:25.384Z,20.63
2022-12-23T08:41:33.039Z,18.83
2022-12-23T08:43:36.106Z,15.90
2022-12-23T08:45:38.471Z,17.00
2022-12-23T08:47:41.398Z,19.13
2022-12-23T08:49:42.949Z,16.60
2022-12-23T08:53:47.145Z,18.65
2022-12-23T08:55:49.053Z,15.18
2022-12-23T08:57:50.623Z,14.95
2022-12-23T09:01:53.814Z,18.23
2022-12-23T09:03:57.234Z,16.80
2022-12-23T09:05:58.984Z,17.10
2022-12-23T09:08:01.667Z,15.25
2022-12-23T09:10:03.769Z,17.52
2022-12-23T09:12:05.555Z,16.83
2022-12-23T09:14:07.134Z,17.02
2022-12-23T09:18:11.474Z,14.45
2022-12-23T09:20:14.560Z,15.38
2022-12-23T09:22:16.124Z,15.75
2022-12-23T09:26:20.886Z,15.75
2022-12-23T09:28:23.460Z,11.75
2022-12-23T09:30:25.061Z,15.25
2022-12-23T09:34:28.064Z,17.02
2022-12-23T09:38:33.082Z,15.73
2022-12-23T09:40:39.228Z,13.02
2022-12-23T09:42:57.008Z,15.57
2022-12-23T09:45:11.233Z,14.15
2022-12-23T09:47:16.659Z,14.57
2022-12-23T09:49:22.505Z,14.45
2022-12-23T09:51:24.432Z,14.63
2022-12-23T09:53:45.050Z,15.07
2022-12-23T09:57:58.322Z,15.07
2022-12-23T10:00:11.072Z,13.05
2022-12-23T10:02:23.441Z,14.63
2022-12-23T10:04:37.755Z,13.00
2022-12-23T10:08:46.553Z,12.10
2022-12-23T10:10:50.976Z,15.55
2022-12-23T10:12:53.899Z,13.30
2022-12-23T10:14:58.797Z,15.02
2022-12-23T10:17:08.792Z,12.43
2022-12-23T10:19:17.738Z,16.25
2022-12-23T10:21:29.794Z,12.57
2022-12-23T10:23:36.415Z,13.63
2022-12-23T10:25:46.434Z,12.50
2022-12-23T10:27:48.190Z,14.32
2022-12-23T10:29:50.056Z,14.40
2022-12-23T10:32:04.871Z,12.30
2022-12-23T10:34:15.080Z,12.10
2022-12-23T10:36:23.297Z,11.63
2022-12-23T10:38:35.404Z,12.45
2022-12-23T10:40:50.053Z,10.82
2022-12-23T10:43:04.205Z,11.13
2022-12-23T10:45:27.824Z,10.82
2022-12-23T10:47:43.359Z,11.18
2022-12-23T10:49:57.102Z,9.23
2022-12-23T10:52:03.177Z,8.75
2022-12-23T10:54:09.931Z,9.80
2022-12-23T10:56:13.642Z,9.57
2022-12-23T10:58:17.260Z,10.40
2022-12-23T11:00:22.776Z,13.00
2022-12-23T11:02:38.736Z,11.70
2022-12-23T11:04:42.612Z,10.65
2022-12-23T11:06:48.320Z,8.00
2022-12-23T11:08:50.647Z,10.15
2022-12-23T11:10:53.820Z,8.88
2022-12-23T11:12:57.167Z,9.15
2022-12-23T11:14:58.758Z,8.13
2022-12-23T11:19:04.277Z,9.65
2022-12-23T11:21:06.742Z,9.25
2022-12-23T11:23:23.649Z,8.65
2022-12-23T11:25:28.192Z,7.65
2022-12-23T11:27:30.405Z,7.10
2022-12-23T11:29:36.694Z,8.13
2022-12-23T11:31:38.953Z,8.70
2022-12-23T11:33:48.604Z,7.68
2022-12-23T11:36:00.899Z,9.63
2022-12-23T11:38:03.270Z,9.57
2022-12-23T11:40:06.963Z,9.63
2022-12-23T11:42:15.918Z,8.82
2022-12-23T11:44:23.998Z,8.30
2022-12-23T11:46:31.241Z,9.35
2022-12-23T11:48:34.089Z,8.50
2022-12-23T11:50:37.714Z,9.60
2022-12-23T11:52:50.692Z,9.90
2022-12-23T11:54:54.782Z,9.13
2022-12-23T11:56:57.521Z,10.25
2022-12-23T11:59:05.789Z,10.27
2022-12-23T12:01:16.679Z,8.75
2022-12-23T12:03:22.383Z,9.65
2022-12-23T12:05:29.936Z,8.98
2022-12-23T12:07:32.832Z,9.30
2022-12-23T12:09:34.644Z,12.07
2022-12-23T12:11:39.423Z,10.55
2022-12-23T12:13:43.329Z,12.55
2022-12-23T12:15:54.390Z,12.32
2022-12-23T12:17:57.744Z,9.93
2022-12-23T12:20:04.589Z,12.65
2022-12-23T12:22:12.246Z,11.77
2022-12-23T12:24:19.938Z,13.60
2022-12-23T12:26:27.070Z,11.15
2022-12-23T12:28:34.359Z,11.80
2022-12-23T12:30:42.908Z,11.00
2022-12-23T12:32:54.990Z,11.60
2022-12-23T12:35:02.056Z,10.77
2022-12-23T12:37:15.872Z,10.65
2022-12-23T12:39:24.584Z,12.40
2022-12-23T12:41:32.612Z,11.07
2022-12-23T12:43:38.004Z,11.32
2022-12-23T12:45:45.794Z,11.50
2022-12-23T12:48:12.786Z,9.75
2022-12-23T12:50:23.419Z,11.10
2022-12-23T12:52:39.220Z,11.07
2022-12-23T12:54:48.482Z,10.88
2022-12-23T12:56:52.211Z,11.18
2022-12-23T12:58:56.722Z,10.32
2022-12-23T13:01:09.997Z,9.80
2022-12-23T13:03:28.054Z,10.20
2022-12-23T13:06:01.611Z,8.75
2022-12-23T13:08:19.469Z,7.70
2022-12-23T13:10:33.082Z,8.73
2022-12-23T13:12:45.124Z,7.88
2022-12-23T13:15:00.990Z,8.68
2022-12-23T13:17:12.402Z,7.57
2022-12-23T13:19:26.117Z,7.93
2022-12-23T13:21:33.747Z,8.98
2022-12-23T13:23:45.892Z,8.57
2022-12-23T13:25:55.070Z,6.32
2022-12-23T13:28:02.277Z,6.85
2022-12-23T13:30:08.775Z,7.10
2022-12-23T13:32:22.462Z,7.00
2022-12-23T13:34:35.673Z,7.28
2022-12-23T13:36:50.789Z,6.90
2022-12-23T13:39:09.612Z,7.75
2022-12-23T13:41:23.684Z,7.63
2022-12-23T13:43:39.343Z,6.53
2022-12-23T13:45:42.643Z,7.53
2022-12-23T13:47:52.263Z,6.82
2022-12-23T13:50:03.565Z,8.02
2022-12-23T13:52:11.542Z,7.05
2022-12-23T13:54:29.750Z,8.15
2022-12-23T13:56:39.147Z,7.65
2022-12-23T13:58:41.643Z,8.30
2022-12-23T14:00:56.445Z,8.20
2022-12-23T14:03:19.075Z,8.20
2022-12-23T14:05:40.536Z,9.88
2022-12-23T14:07:44.777Z,7.43
2022-12-23T14:09:54.741Z,7.40
2022-12-23T14:12:01.095Z,7.15
2022-12-23T14:14:22.997Z,7.30
2022-12-23T14:16:51.631Z,8.68
2022-12-23T14:19:35.926Z,9.70
2022-12-23T14:21:47.777Z,8.90
2022-12-23T14:24:07.716Z,7.60
2022-12-23T14:26:30.678Z,9.82
2022-12-23T14:28:54.110Z,9.20
2022-12-23T14:30:56.271Z,9.50
2022-12-23T14:32:59.688Z,8.23
2022-12-23T14:35:15.841Z,9.38
2022-12-23T14:37:36.331Z,8.93
2022-12-23T14:39:38.528Z,8.02
2022-12-23T14:41:49.005Z,8.77
2022-12-23T14:43:58.137Z,9.15
2022-12-23T14:46:01.133Z,9.80
2022-12-23T14:48:23.874Z,8.57
2022-12-23T14:50:39.984Z,9.50
2022-12-23T14:53:01.353Z,9.10
2022-12-23T14:55:47.821Z,9.43
2022-12-23T14:58:07.283Z,8.25
2022-12-23T15:00:10.229Z,10.23
2022-12-23T15:02:24.295Z,10.60
2022-12-23T15:04:29.049Z,10.88
2022-12-23T15:06:35.613Z,11.00
2022-12-23T15:08:41.177Z,11.65
2022-12-23T15:10:44.406Z,10.45
2022-12-23T15:12:49.432Z,11.32
2022-12-23T15:14:56.309Z,11.85
2022-12-23T15:16:58.441Z,10.98
2022-12-23T15:19:02.575Z,11.65
2022-12-23T15:21:11.008Z,10.20
2022-12-23T15:23:17.001Z,11.95
2022-12-23T15:25:21.513Z,11.20
2022-12-23T15:27:28.528Z,11.25
2022-12-23T15:29:31.117Z,15.07
2022-12-23T15:31:43.421Z,12.43
2022-12-23T15:34:04.075Z,10.55
2022-12-23T15:36:09.823Z,12.70
2022-12-23T15:38:14.572Z,14.27
2022-12-23T15:40:25.072Z,12.00
2022-12-23T15:42:28.540Z,10.95
2022-12-23T15:44:37.240Z,12.35
2022-12-23T15:46:44.789Z,12.32
2022-12-23T15:48:47.545Z,12.93
2022-12-23T15:50:51.392Z,11.88
2022-12-23T15:52:56.128Z,11.57
2022-12-23T15:55:00.641Z,12.40
2022-12-23T15:57:05.888Z,12.43
2022-12-23T15:59:20.903Z,14.13
2022-12-23T16:01:23.069Z,10.95
2022-12-23T16:03:32.740Z,12.00
2022-12-23T16:05:36.512Z,11.32
2022-12-23T16:07:41.250Z,12.23
2022-12-23T16:09:43.563Z,12.13
2022-12-23T16:11:53.485Z,13.13
2022-12-23T16:13:58.688Z,11.68
2022-12-23T16:16:36.654Z,12.13
2022-12-23T16:18:47.349Z,10.70
2022-12-23T16:20:51.845Z,11.13
2022-12-23T16:23:00.458Z,10.32
2022-12-23T16:25:10.791Z,10.80
2022-12-23T16:27:15.475Z,13.30
2022-12-23T16:29:17.840Z,11.60
2022-12-23T16:31:20.940Z,11.80
2022-12-23T16:33:33.492Z,10.98
2022-12-23T16:35:40.493Z,11.90
2022-12-23T16:37:45.940Z,13.65
2022-12-23T16:39:52.398Z,12.05
2022-12-23T16:41:54.070Z,10.57
2022-12-23T16:44:00.518Z,12.43
2022-12-23T16:46:02.925Z,10.43
2022-12-23T16:48:10.028Z,12.93
2022-12-23T16:50:14.585Z,10.65
2022-12-23T16:52:20.640Z,11.85
2022-12-23T16:54:22.322Z,12.15
2022-12-23T16:56:27.431Z,11.77
2022-12-23T16:58:29.883Z,10.23
2022-12-23T17:00:32.093Z,10.68
2022-12-23T17:02:37.219Z,10.65
2022-12-23T17:04:38.957Z,11.35
2022-12-23T17:06:45.202Z,11.55
2022-12-23T17:08:49.285Z,11.18
2022-12-23T17:10:51.843Z,30.60
2022-12-23T17:12:54.083Z,14.15
2022-12-23T17:14:55.647Z,11.20
2022-12-23T17:18:59.265Z,11.60
2022-12-23T17:23:02.935Z,13.18
2022-12-23T17:25:06.400Z,12.77
2022-12-23T17:27:13.230Z,14.32
2022-12-23T17:29:14.944Z,15.90
2022-12-23T17:31:26.017Z,13.98
2022-12-23T17:33:31.718Z,12.52
2022-12-23T17:35:33.306Z,17.17
2022-12-23T17:39:37.211Z,20.40
2022-12-23T17:41:41.324Z,17.30
2022-12-23T17:43:42.849Z,18.40
2022-12-23T17:47:46.748Z,18.17
2022-12-23T17:49:49.071Z,18.30
2022-12-23T17:51:50.628Z,18.50
2022-12-23T17:55:59.646Z,15.23
2022-12-23T18:00:04.875Z,17.42
2022-12-23T18:02:21.818Z,17.85
2022-12-23T18:04:23.457Z,15.73
2022-12-23T18:08:27.632Z,16.35
2022-12-23T18:12:36.207Z,19.23
2022-12-23T18:14:42.237Z,18.58
2022-12-23T18:16:44.017Z,16.25
2022-12-23T18:18:47.058Z,19.08
2022-12-23T18:20:52.050Z,16.80
2022-12-23T18:22:55.028Z,18.55
2022-12-23T18:24:59.409Z,22.35
2022-12-23T18:27:01.311Z,19.27
2022-12-23T18:31:05.922Z,18.02
2022-12-23T18:33:10.650Z,17.80
2022-12-23T18:35:34.728Z,18.27
2022-12-23T18:37:36.299Z,16.90
2022-12-23T18:41:39.196Z,18.67
2022-12-23T18:45:42.197Z,16.88
2022-12-23T18:47:45.182Z,20.15
2022-12-23T18:49:46.910Z,17.10
2022-12-23T18:51:50.396Z,19.45
2022-12-23T18:53:52.485Z,18.77
2022-12-23T18:55:54.355Z,21.85
2022-12-23T18:57:56.731Z,20.40
2022-12-23T18:59:58.308Z,17.80
2022-12-23T19:04:02.923Z,19.48
2022-12-23T19:06:06.645Z,22.15
2022-12-23T19:08:11.279Z,21.20
2022-12-23T19:10:17.520Z,21.80
2022-12-23T19:12:22.163Z,28.90
2022-12-23T19:14:24.208Z,22.13
2022-12-23T19:16:25.817Z,24.10
2022-12-23T19:18:27.514Z,23.45
2022-12-23T19:20:31.297Z,25.05
2022-12-23T19:22:32.825Z,27.67
2022-12-23T19:26:35.723Z,26.30
2022-12-23T19:30:40.379Z,21.52
2022-12-23T19:32:42.126Z,22.38
2022-12-23T19:34:43.677Z,25.55
2022-12-23T19:38:48.205Z,21.42
2022-12-23T19:40:56.300Z,21.27
2022-12-23T19:42:57.820Z,21.40
2022-12-23T19:44:59.475Z,50.38
2022-12-23T19:49:02.528Z,26.75
2022-12-23T19:53:08.223Z,23.27
2022-12-23T19:55:10.205Z,34.17
2022-12-23T19:57:11.824Z,26.50
2022-12-23T20:01:17.047Z,23.98
2022-12-23T20:03:19.066Z,22.98
2022-12-23T20:05:20.608Z,23.60
2022-12-23T20:07:22.292Z,21.27
2022-12-23T20:09:25.211Z,23.30
2022-12-23T20:11:26.700Z,23.60
2022-12-23T20:13:28.324Z,20.40
2022-12-23T20:17:31.302Z,20.30
2022-12-23T20:19:32.945Z,22.33
2022-12-23T20:21:35.676Z,19.27
2022-12-23T20:23:37.226Z,21.35
2022-12-23T20:27:41.505Z,19.05
2022-12-23T20:29:43.049Z,22.95
2022-12-23T20:33:47.303Z,21.42
2022-12-23T20:35:48.868Z,22.48
2022-12-23T20:37:50.502Z,20.92
2022-12-23T20:41:54.855Z,18.52
2022-12-23T20:44:32.210Z,23.52
2022-12-23T20:46:19.461Z,23.98
2022-12-23T20:48:49.255Z,22.50
2022-12-23T20:50:50.847Z,22.20
2022-12-23T20:54:56.503Z,21.67
2022-12-23T20:56:59.472Z,22.88
2022-12-23T20:59:01.075Z,25.90
2022-12-23T21:03:11.354Z,21.98
2022-12-23T21:07:14.695Z,25.23
2022-12-23T21:09:16.553Z,22.85
2022-12-23T21:11:18.298Z,24.98
2022-12-23T21:13:21.219Z,22.20
2022-12-23T21:15:22.781Z,25.73
2022-12-23T21:17:24.407Z,25.98
2022-12-23T21:21:28.400Z,22.50
2022-12-23T21:23:30.227Z,21.40
2022-12-23T21:25:31.833Z,21.85
2022-12-23T21:29:36.087Z,21.77
2022-12-23T21:31:39.352Z,24.27
2022-12-23T21:33:43.024Z,20.00
2022-12-23T21:35:45.649Z,24.60
2022-12-23T21:37:47.164Z,21.50
2022-12-23T21:39:48.686Z,21.10
2022-12-23T21:41:52.642Z,22.70
2022-12-23T21:43:57.356Z,19.38
2022-12-23T21:46:06.430Z,19.67
2022-12-23T21:48:08.293Z,20.58
2022-12-23T21:50:10.647Z,19.88
2022-12-23T21:52:12.224Z,17.90
2022-12-23T21:54:14.189Z,20.52
2022-12-23T21:56:17.847Z,19.48
2022-12-23T21:58:19.367Z,20.67
2022-12-23T22:00:21.112Z,19.30
2022-12-23T22:02:24.799Z,17.25
2022-12-23T22:04:26.399Z,21.02
2022-12-23T22:06:30.054Z,16.92
2022-12-23T22:08:31.595Z,15.45
2022-12-23T22:10:33.149Z,18.08
2022-12-23T22:12:34.693Z,17.10
2022-12-23T22:14:36.406Z,17.23
2022-12-23T22:16:38.112Z,17.13
2022-12-23T22:18:41.307Z,18.98
2022-12-23T22:20:46.381Z,17.02
2022-12-23T22:22:48.449Z,15.82
2022-12-23T22:24:50.057Z,17.88
2022-12-23T22:26:51.588Z,17.13
2022-12-23T22:28:54.755Z,17.45
2022-12-23T22:31:01.556Z,15.60
2022-12-23T22:33:03.090Z,15.95
2022-12-23T22:35:06.621Z,16.40
2022-12-23T22:37:08.182Z,19.05
2022-12-23T22:39:19.423Z,14.60
2022-12-23T22:41:22.970Z,16.05
2022-12-23T22:43:24.577Z,17.10
2022-12-23T22:45:26.156Z,17.30
2022-12-23T22:47:27.973Z,16.15
2022-12-23T22:49:29.556Z,14.88
2022-12-23T22:51:35.143Z,12.45
2022-12-23T22:53:36.919Z,15.10
2022-12-23T22:55:38.511Z,15.35
2022-12-23T22:57:40.517Z,14.93
2022-12-23T22:59:42.059Z,19.48
2022-12-23T23:01:43.650Z,16.42
2022-12-23T23:03:45.215Z,17.10
2022-12-23T23:05:56.365Z,17.17
2022-12-23T23:07:59.328Z,17.02
2022-12-23T23:10:00.881Z,16.15
2022-12-23T23:12:02.414Z,15.07
2022-12-23T23:14:04.234Z,16.95
2022-12-23T23:16:06.594Z,15.18
2022-12-23T23:18:08.179Z,18.77
2022-12-23T23:20:10.360Z,14.68
2022-12-23T23:22:11.921Z,16.25
2022-12-23T23:24:14.921Z,15.73
2022-12-23T23:26:17.364Z,15.80
2022-12-23T23:28:18.912Z,13.57
2022-12-23T23:30:20.733Z,19.15
2022-12-23T23:32:22.424Z,13.82
2022-12-23T23:34:24.051Z,14.82
2022-12-23T23:36:25.806Z,14.40
2022-12-23T23:38:28.088Z,18.25
2022-12-23T23:40:32.471Z,16.02
2022-12-23T23:42:34.012Z,17.05
2022-12-23T23:44:35.618Z,14.55
2022-12-23T23:48:39.439Z,14.43
2022-12-23T23:50:41.628Z,11.30
2022-12-23T23:52:43.184Z,10.32
2022-12-23T23:54:44.828Z,11.45
2022-12-23T23:59:00.341Z,13.88
